Time;durP1;ratioP1;P1;durP2;ratioP2;P2;SDS_P1;SDS_P2;PMS_P1;PMS_P2;Temp;Humidity;BMP_temperature;BMP_pressure;BME280_temperature;BME280_humidity;BME280_pressure;Samples;Min_cycle;Max_cycle;Signal;HPM_P1;HPM_P2
2023/10/30 00:00:09;;;;;;;141.07;135.97;;;10.90;99.40;;;;;;5012709;28;20978;-74
2023/10/30 00:02:39;;;;;;;127.03;122.27;;;10.90;99.20;;;;;;5004228;28;20461;-74
2023/10/30 00:05:07;;;;;;;115.30;110.93;;;11.00;98.90;;;;;;5013210;28;20492;-74
2023/10/30 00:07:34;;;;;;;120.93;116.23;;;11.00;98.50;;;;;;5017983;28;20462;-73
2023/10/30 00:10:00;;;;;;;122.27;117.67;;;11.00;99.20;;;;;;5013920;28;20454;-75
2023/10/30 00:12:27;;;;;;;123.43;117.90;;;11.00;99.10;;;;;;5012168;28;20534;-76
2023/10/30 00:14:55;;;;;;;137.23;131.83;;;11.10;99.30;;;;;;5012095;28;20450;-75
2023/10/30 00:17:22;;;;;;;163.83;158.07;;;11.00;99.80;;;;;;5013314;28;20474;-73
2023/10/30 00:19:50;;;;;;;178.60;171.30;;;11.10;99.90;;;;;;5012299;28;20540;-75
2023/10/30 00:22:17;;;;;;;187.63;181.13;;;11.10;99.90;;;;;;5027890;28;20450;-75
2023/10/30 00:24:44;;;;;;;196.97;190.27;;;11.10;99.90;;;;;;5027216;28;21026;-75
2023/10/30 00:27:11;;;;;;;217.67;210.47;;;11.10;99.90;;;;;;5022836;28;20981;-75
2023/10/30 00:29:40;;;;;;;205.57;198.67;;;11.10;99.90;;;;;;5011913;28;20844;-76
2023/10/30 00:32:07;;;;;;;194.87;187.87;;;11.10;99.90;;;;;;5019930;28;20450;-75
2023/10/30 00:34:34;;;;;;;196.37;190.07;;;11.20;99.90;;;;;;5031730;28;20453;-76
2023/10/30 00:37:03;;;;;;;196.83;190.03;;;11.20;99.90;;;;;;5031604;28;20481;-76
2023/10/30 00:39:32;;;;;;;186.03;180.07;;;11.20;99.90;;;;;;5035159;28;20450;-75
2023/10/30 00:42:00;;;;;;;188.33;181.73;;;11.30;99.90;;;;;;5035198;28;20540;-73
2023/10/30 00:44:27;;;;;;;171.90;165.37;;;11.30;99.90;;;;;;5018076;28;20451;-73
2023/10/30 00:46:54;;;;;;;167.20;161.13;;;11.30;99.90;;;;;;5015356;28;20454;-73
2023/10/30 00:49:21;;;;;;;170.17;164.27;;;11.40;99.90;;;;;;5015396;28;20814;-75
2023/10/30 00:51:48;;;;;;;148.17;142.60;;;11.40;99.90;;;;;;5015252;28;20462;-75
2023/10/30 00:54:16;;;;;;;169.17;162.50;;;11.40;99.90;;;;;;5015430;28;20448;-76
2023/10/30 00:56:43;;;;;;;182.10;175.00;;;11.30;99.90;;;;;;5014962;28;20476;-75
2023/10/30 00:59:10;;;;;;;192.07;185.73;;;11.30;99.90;;;;;;5020204;28;20917;-75
2023/10/30 01:01:37;;;;;;;178.83;172.53;;;11.30;99.90;;;;;;5033371;28;20537;-75
2023/10/30 01:04:07;;;;;;;158.77;152.90;;;11.40;99.90;;;;;;5034545;28;20465;-75
2023/10/30 01:06:34;;;;;;;160.43;154.73;;;11.40;99.90;;;;;;5034244;28;20843;-76
2023/10/30 01:09:01;;;;;;;158.97;153.00;;;11.40;99.90;;;;;;5031460;28;20582;-76
2023/10/30 01:11:29;;;;;;;159.50;153.00;;;11.40;99.90;;;;;;5015930;28;20966;-75
2023/10/30 01:13:56;;;;;;;144.13;138.80;;;11.50;99.90;;;;;;5014780;28;20455;-75
2023/10/30 01:16:23;;;;;;;156.40;150.63;;;11.50;99.90;;;;;;5014723;28;20485;-76
2023/10/30 01:18:50;;;;;;;161.33;155.63;;;11.60;99.90;;;;;;5018736;28;20457;-76
2023/10/30 01:21:17;;;;;;;148.10;142.10;;;11.60;99.90;;;;;;5014619;28;20449;-73
2023/10/30 01:23:44;;;;;;;154.80;149.37;;;11.60;99.90;;;;;;5014467;28;20447;-76
2023/10/30 01:26:11;;;;;;;164.77;159.07;;;11.60;99.90;;;;;;5014749;28;20550;-76
2023/10/30 01:28:39;;;;;;;175.27;168.90;;;11.60;99.90;;;;;;5014730;28;20455;-76
2023/10/30 01:31:06;;;;;;;192.73;185.43;;;11.50;99.90;;;;;;5014434;28;20453;-76
2023/10/30 01:33:33;;;;;;;203.13;196.13;;;11.50;99.90;;;;;;5011839;28;20448;-76
2023/10/30 01:36:00;;;;;;;216.40;208.57;;;11.40;99.90;;;;;;5014275;28;20513;-76
2023/10/30 01:38:27;;;;;;;192.87;185.97;;;11.40;99.90;;;;;;5014154;28;20456;-76
2023/10/30 01:40:54;;;;;;;189.23;181.83;;;11.40;99.90;;;;;;5014296;28;20456;-76
2023/10/30 01:43:29;;;;;;;174.53;168.57;;;11.40;99.90;;;;;;5017809;28;20566;-76
2023/10/30 01:45:57;;;;;;;180.77;174.50;;;11.40;99.90;;;;;;5033642;28;20449;-75
2023/10/30 01:48:25;;;;;;;186.70;180.00;;;11.30;99.90;;;;;;5022048;28;20460;-76
2023/10/30 01:50:52;;;;;;;194.00;187.43;;;11.30;99.90;;;;;;5028541;28;20514;-76
2023/10/30 01:53:21;;;;;;;196.97;190.47;;;11.30;99.90;;;;;;5034003;28;20459;-75
2023/10/30 01:55:48;;;;;;;195.33;188.43;;;11.20;99.90;;;;;;5017877;28;20539;-75
2023/10/30 01:58:16;;;;;;;188.50;181.97;;;11.20;99.90;;;;;;5014177;28;20455;-75
2023/10/30 02:00:44;;;;;;;192.37;185.67;;;11.20;99.90;;;;;;5028272;28;20557;-75
2023/10/30 02:03:12;;;;;;;172.50;166.10;;;11.20;99.90;;;;;;5033229;28;20538;-75
2023/10/30 02:05:41;;;;;;;163.80;158.23;;;11.30;99.90;;;;;;4997482;28;20521;-76
2023/10/30 02:08:08;;;;;;;152.53;146.97;;;11.30;99.90;;;;;;5013963;28;20514;-75
2023/10/30 02:10:35;;;;;;;146.20;140.57;;;11.30;99.90;;;;;;5015255;28;20816;-75
2023/10/30 02:13:06;;;;;;;126.70;122.10;;;11.40;99.90;;;;;;5013706;28;20452;-75
2023/10/30 02:15:32;;;;;;;119.23;114.47;;;11.40;99.90;;;;;;5013847;28;20472;-76
2023/10/30 02:17:59;;;;;;;94.83;90.43;;;11.40;99.90;;;;;;5024696;28;20473;-73
2023/10/30 02:20:28;;;;;;;88.07;84.37;;;11.50;99.90;;;;;;5013911;28;20455;-73
2023/10/30 02:22:55;;;;;;;76.57;73.10;;;11.50;99.90;;;;;;4997631;28;20456;-73
2023/10/30 02:25:24;;;;;;;76.83;73.50;;;11.50;99.90;;;;;;5013699;28;20460;-73
2023/10/30 02:27:51;;;;;;;81.50;78.00;;;11.40;99.90;;;;;;5015320;28;20479;-73
2023/10/30 02:30:18;;;;;;;86.03;82.67;;;11.40;99.90;;;;;;5030971;28;20808;-73
2023/10/30 02:32:46;;;;;;;98.23;93.93;;;11.40;99.90;;;;;;5022617;28;20474;-73
2023/10/30 02:35:13;;;;;;;113.23;108.93;;;11.30;99.90;;;;;;5013595;28;20830;-73
2023/10/30 02:37:40;;;;;;;127.50;122.93;;;11.20;99.90;;;;;;5013031;28;20483;-73
2023/10/30 02:40:08;;;;;;;133.80;129.00;;;11.10;99.90;;;;;;5013360;28;20456;-73
2023/10/30 02:42:37;;;;;;;125.03;120.07;;;11.10;99.90;;;;;;5013232;28;20460;-73
2023/10/30 02:45:04;;;;;;;121.73;116.43;;;11.20;99.90;;;;;;5016482;28;20464;-73
2023/10/30 02:47:31;;;;;;;106.63;102.27;;;11.20;99.90;;;;;;5030808;28;20447;-73
2023/10/30 02:49:58;;;;;;;126.00;121.17;;;11.20;99.90;;;;;;5029103;28;20463;-73
2023/10/30 02:52:25;;;;;;;135.53;130.13;;;11.20;99.90;;;;;;5019669;28;20459;-73
2023/10/30 02:54:51;;;;;;;164.13;158.70;;;11.00;99.90;;;;;;5030972;28;20458;-73
2023/10/30 02:57:17;;;;;;;222.57;215.10;;;10.90;99.90;;;;;;5027392;28;21061;-73
2023/10/30 02:59:46;;;;;;;252.97;243.93;;;10.70;99.90;;;;;;5013171;28;20306;-73
2023/10/30 03:02:13;;;;;;;315.60;304.87;;;10.60;99.90;;;;;;5012619;28;20946;-73
2023/10/30 03:04:40;;;;;;;356.93;344.57;;;10.40;99.90;;;;;;5014062;28;20867;-73
2023/10/30 03:07:06;;;;;;;386.00;371.40;;;10.40;99.90;;;;;;5023302;28;20968;-73
2023/10/30 03:09:37;;;;;;;432.33;415.27;;;10.30;99.90;;;;;;5032303;28;20544;-73
2023/10/30 03:12:04;;;;;;;473.63;454.00;;;10.20;99.90;;;;;;5029228;28;20458;-73
2023/10/30 03:14:31;;;;;;;480.33;459.63;;;10.30;99.90;;;;;;5013658;28;20460;-73
2023/10/30 03:16:59;;;;;;;525.87;503.00;;;10.20;99.90;;;;;;5023718;28;20488;-73
2023/10/30 03:19:26;;;;;;;524.07;501.37;;;10.30;99.90;;;;;;5016271;28;20944;-73
2023/10/30 03:21:53;;;;;;;539.30;515.50;;;10.30;99.90;;;;;;5013458;28;20458;-73
2023/10/30 03:24:20;;;;;;;516.97;495.20;;;10.40;99.90;;;;;;5012626;28;20456;-73
2023/10/30 03:26:47;;;;;;;499.70;478.97;;;10.50;99.90;;;;;;5012503;28;20809;-73
2023/10/30 03:29:14;;;;;;;496.37;475.70;;;10.50;99.90;;;;;;5013197;28;20523;-73
2023/10/30 03:31:41;;;;;;;489.57;468.87;;;10.50;99.90;;;;;;5015396;28;20449;-73
2023/10/30 03:34:09;;;;;;;474.77;454.87;;;10.60;99.90;;;;;;5031757;28;20968;-73
2023/10/30 03:36:36;;;;;;;473.00;453.90;;;10.60;99.90;;;;;;5031781;28;20477;-73
2023/10/30 03:39:04;;;;;;;461.07;442.67;;;10.70;99.90;;;;;;5022231;28;20456;-73
2023/10/30 03:41:30;;;;;;;444.87;427.37;;;10.70;99.90;;;;;;5012680;28;20458;-73
2023/10/30 03:43:57;;;;;;;408.63;393.33;;;10.80;99.90;;;;;;5032231;28;20461;-73
2023/10/30 03:46:24;;;;;;;383.10;369.20;;;10.90;99.90;;;;;;5031798;28;20451;-69
2023/10/30 03:48:51;;;;;;;362.30;349.30;;;10.90;99.90;;;;;;5015000;28;20467;-69
2023/10/30 03:51:19;;;;;;;341.07;329.17;;;11.00;99.90;;;;;;5031671;28;20521;-70
2023/10/30 03:53:46;;;;;;;341.30;328.30;;;11.00;99.90;;;;;;5029779;28;20458;-70
2023/10/30 03:56:13;;;;;;;324.23;313.07;;;11.10;99.90;;;;;;5019425;28;20458;-70
2023/10/30 03:58:40;;;;;;;305.73;294.97;;;11.20;99.90;;;;;;5012125;28;20477;-70
2023/10/30 04:01:07;;;;;;;266.60;256.93;;;11.20;99.90;;;;;;5016259;28;20487;-70
2023/10/30 04:03:34;;;;;;;261.00;251.27;;;11.30;99.90;;;;;;5032016;28;20539;-70
2023/10/30 04:06:02;;;;;;;249.77;241.33;;;11.20;99.90;;;;;;5029514;28;20629;-70
2023/10/30 04:08:31;;;;;;;251.57;243.07;;;11.20;99.90;;;;;;5012158;28;20450;-70
2023/10/30 04:10:57;;;;;;;238.00;229.60;;;11.30;99.90;;;;;;5026430;28;20463;-70
2023/10/30 04:13:24;;;;;;;225.27;217.87;;;11.30;99.90;;;;;;5033429;28;20460;-70
2023/10/30 04:15:52;;;;;;;221.67;213.77;;;11.30;99.90;;;;;;5035459;28;20456;-70
2023/10/30 04:18:19;;;;;;;220.77;213.20;;;11.30;99.90;;;;;;5017212;28;21023;-70
2023/10/30 04:20:46;;;;;;;230.73;223.13;;;11.20;99.90;;;;;;5032340;28;20449;-70
2023/10/30 04:23:13;;;;;;;231.90;223.30;;;11.10;99.90;;;;;;5032741;28;20543;-70
2023/10/30 04:25:41;;;;;;;239.97;231.37;;;11.10;99.90;;;;;;5033621;28;20453;-70
2023/10/30 04:28:08;;;;;;;248.43;240.03;;;11.10;99.90;;;;;;5023872;28;20444;-70
2023/10/30 04:30:35;;;;;;;269.17;260.07;;;11.00;99.90;;;;;;5035458;28;20515;-70
2023/10/30 04:33:02;;;;;;;282.67;273.27;;;10.80;99.90;;;;;;5019920;28;20533;-70
2023/10/30 04:35:29;;;;;;;316.13;304.67;;;10.70;99.90;;;;;;5015453;28;20551;-70
2023/10/30 04:37:56;;;;;;;346.90;334.17;;;10.60;99.90;;;;;;5015153;28;20481;-70
2023/10/30 04:40:23;;;;;;;382.43;367.57;;;10.50;99.90;;;;;;5015437;28;20460;-70
2023/10/30 04:42:51;;;;;;;406.80;390.10;;;10.30;99.90;;;;;;5015547;28;21019;-70
2023/10/30 04:45:18;;;;;;;446.00;428.00;;;10.20;99.90;;;;;;5024967;28;20450;-70
2023/10/30 04:47:45;;;;;;;478.00;456.23;;;10.20;99.90;;;;;;5035025;28;20444;-72
2023/10/30 04:50:12;;;;;;;532.97;508.27;;;10.10;99.90;;;;;;5034990;28;20813;-69
2023/10/30 04:52:39;;;;;;;534.03;509.13;;;10.00;99.90;;;;;;5035203;28;20451;-69
2023/10/30 04:55:07;;;;;;;581.20;552.17;;;10.00;99.90;;;;;;5035080;28;20826;-69
2023/10/30 04:57:34;;;;;;;607.07;575.30;;;10.00;99.90;;;;;;5032505;28;20478;-69
2023/10/30 05:00:04;;;;;;;606.37;572.57;;;10.00;99.90;;;;;;5025162;28;20540;-69
2023/10/30 05:02:31;;;;;;;603.53;570.60;;;10.00;99.90;;;;;;5017887;28;20440;-69
2023/10/30 05:04:58;;;;;;;619.93;583.83;;;9.90;99.90;;;;;;5033322;28;20480;-69
2023/10/30 05:07:25;;;;;;;648.30;609.87;;;9.90;99.90;;;;;;5034584;28;21016;-69
2023/10/30 05:09:52;;;;;;;630.23;591.73;;;9.90;99.90;;;;;;5032911;28;20508;-69
2023/10/30 05:12:20;;;;;;;647.60;607.20;;;9.90;99.90;;;;;;5028700;28;20473;-69
2023/10/30 05:14:47;;;;;;;649.17;609.87;;;9.90;99.90;;;;;;5034333;28;20937;-69
2023/10/30 05:17:15;;;;;;;651.60;611.10;;;9.90;99.90;;;;;;5033100;28;20571;-69
2023/10/30 05:19:42;;;;;;;633.37;594.97;;;9.90;99.90;;;;;;5025652;28;20492;-70
2023/10/30 05:22:09;;;;;;;621.23;582.47;;;9.90;99.90;;;;;;5014568;28;20463;-69
2023/10/30 05:24:36;;;;;;;671.87;630.77;;;9.80;99.90;;;;;;5026249;28;20956;-69
2023/10/30 05:27:03;;;;;;;662.80;621.43;;;9.80;99.90;;;;;;5034427;28;20450;-69
2023/10/30 05:29:30;;;;;;;677.73;635.47;;;9.80;99.90;;;;;;5034257;28;20483;-71
2023/10/30 05:32:02;;;;;;;691.33;646.97;;;9.80;99.90;;;;;;5034248;28;20456;-72
2023/10/30 05:34:31;;;;;;;713.23;668.60;;;9.80;99.90;;;;;;5034214;28;20941;-72
2023/10/30 05:36:58;;;;;;;726.87;680.87;;;9.80;99.90;;;;;;5034177;28;20542;-72
2023/10/30 05:39:25;;;;;;;760.43;710.57;;;9.70;99.90;;;;;;5034209;28;20536;-69
2023/10/30 05:41:51;;;;;;;747.50;698.53;;;9.70;99.90;;;;;;5034117;28;20458;-69
2023/10/30 05:44:19;;;;;;;742.50;694.00;;;9.70;99.90;;;;;;5032766;28;20453;-69
2023/10/30 05:46:46;;;;;;;777.77;727.27;;;9.70;99.90;;;;;;5014150;28;20551;-70
2023/10/30 05:49:12;;;;;;;779.20;729.23;;;9.70;99.90;;;;;;5029026;28;20457;-69
2023/10/30 05:51:41;;;;;;;805.60;752.63;;;9.60;99.90;;;;;;5034101;28;20830;-69
2023/10/30 05:54:07;;;;;;;785.63;734.23;;;9.60;99.90;;;;;;5033512;28;20461;-72
2023/10/30 05:56:34;;;;;;;818.50;766.33;;;9.60;99.90;;;;;;5025671;28;20452;-72
2023/10/30 05:59:01;;;;;;;824.27;771.07;;;9.50;99.90;;;;;;5033515;28;20518;-72
2023/10/30 06:01:29;;;;;;;832.83;779.07;;;9.50;99.90;;;;;;5033880;28;20533;-72
2023/10/30 06:03:56;;;;;;;837.50;781.87;;;9.50;99.90;;;;;;5033762;28;20482;-72
2023/10/30 06:06:23;;;;;;;879.50;820.23;;;9.50;99.90;;;;;;5033358;28;20469;-72
2023/10/30 06:08:51;;;;;;;868.90;809.83;;;9.50;99.90;;;;;;5033267;28;20505;-72
2023/10/30 06:11:18;;;;;;;879.57;819.57;;;9.50;99.90;;;;;;5023001;28;20452;-72
2023/10/30 06:13:45;;;;;;;895.90;833.20;;;9.40;99.90;;;;;;5013588;28;20461;-69
2023/10/30 06:16:15;;;;;;;880.97;819.97;;;9.50;99.90;;;;;;5014064;28;20453;-69
2023/10/30 06:18:42;;;;;;;890.50;827.60;;;9.50;99.90;;;;;;5013582;28;20490;-69
2023/10/30 06:21:14;;;;;;;908.10;844.90;;;9.50;99.90;;;;;;5020806;28;20448;-69
2023/10/30 06:23:41;;;;;;;914.73;851.10;;;9.50;99.90;;;;;;5033075;28;20466;-69
2023/10/30 06:26:10;;;;;;;931.73;866.40;;;9.40;99.90;;;;;;5032977;28;20450;-69
2023/10/30 06:28:38;;;;;;;939.30;872.17;;;9.40;99.90;;;;;;5027187;28;20929;-69
2023/10/30 06:31:05;;;;;;;945.60;878.10;;;9.30;99.90;;;;;;5031782;28;20460;-69
2023/10/30 06:33:33;;;;;;;947.57;880.23;;;9.30;99.90;;;;;;5026914;28;20454;-70
2023/10/30 06:36:00;;;;;;;965.63;895.73;;;9.30;99.90;;;;;;5032527;28;20801;-69
2023/10/30 06:38:28;;;;;;;966.67;896.47;;;9.20;99.90;;;;;;5033019;28;20590;-69
2023/10/30 06:40:55;;;;;;;958.73;887.73;;;9.20;99.90;;;;;;5031437;28;20454;-69
2023/10/30 06:43:23;;;;;;;977.47;899.90;;;9.20;99.90;;;;;;5032783;28;20458;-69
2023/10/30 06:45:50;;;;;;;967.37;891.67;;;9.20;99.90;;;;;;5029202;28;20452;-69
2023/10/30 06:48:16;;;;;;;972.17;897.50;;;9.10;99.90;;;;;;5023795;28;20444;-69
2023/10/30 06:50:43;;;;;;;990.80;913.73;;;9.10;99.90;;;;;;5030567;28;20457;-69
2023/10/30 06:53:10;;;;;;;977.23;899.00;;;9.10;99.90;;;;;;5032198;28;21016;-69
2023/10/30 06:55:39;;;;;;;986.27;907.57;;;9.10;99.90;;;;;;5021607;28;20489;-69
2023/10/30 06:58:06;;;;;;;982.87;903.40;;;9.10;99.90;;;;;;5014618;28;20976;-69
2023/10/30 07:00:34;;;;;;;980.00;896.80;;;9.10;99.90;;;;;;5021893;28;20542;-69
2023/10/30 07:03:01;;;;;;;972.42;885.78;;;9.20;99.90;;;;;;5023797;28;20477;-69
2023/10/30 07:05:28;;;;;;;959.50;879.20;;;9.30;99.90;;;;;;5012117;28;20457;-70
2023/10/30 07:07:55;;;;;;;967.20;892.40;;;9.30;99.90;;;;;;5012585;28;20453;-70
2023/10/30 07:10:22;;;;;;;968.53;893.53;;;9.30;99.90;;;;;;5012745;28;20451;-70
2023/10/30 07:12:49;;;;;;;972.40;895.90;;;9.30;99.90;;;;;;5012617;28;20505;-70
2023/10/30 07:15:16;;;;;;;978.67;901.23;;;9.40;99.90;;;;;;5012569;28;20450;-70
2023/10/30 07:17:44;;;;;;;959.33;882.40;;;9.40;99.90;;;;;;5011245;28;20883;-70
2023/10/30 07:20:12;;;;;;;976.73;900.67;;;9.50;99.90;;;;;;5012110;28;20454;-70
2023/10/30 07:22:39;;;;;;;961.87;881.97;;;9.50;99.90;;;;;;5012357;28;20543;-70
2023/10/30 07:25:06;;;;;;;965.90;887.73;;;9.60;99.90;;;;;;5012301;28;20456;-70
2023/10/30 07:27:34;;;;;;;955.63;878.07;;;9.70;99.90;;;;;;5004359;28;20564;-70
2023/10/30 07:30:02;;;;;;;956.30;878.20;;;9.70;99.90;;;;;;5012667;28;20795;-70
2023/10/30 07:32:29;;;;;;;948.83;872.87;;;9.80;99.90;;;;;;5012359;28;20480;-70
2023/10/30 07:34:58;;;;;;;941.43;864.43;;;9.90;99.90;;;;;;5012144;28;20456;-70
2023/10/30 07:37:24;;;;;;;935.03;856.40;;;10.00;99.90;;;;;;5012461;28;20531;-70
2023/10/30 07:39:51;;;;;;;933.87;855.60;;;10.10;99.90;;;;;;5012514;28;20875;-71
2023/10/30 07:42:18;;;;;;;924.67;848.07;;;10.30;99.90;;;;;;5012468;28;20459;-71
2023/10/30 07:44:45;;;;;;;925.00;849.50;;;10.40;99.90;;;;;;5012402;28;20449;-71
2023/10/30 07:47:12;;;;;;;921.10;846.53;;;10.50;99.90;;;;;;5012318;28;20452;-71
2023/10/30 07:49:38;;;;;;;915.93;846.27;;;10.60;99.90;;;;;;5016154;28;20479;-71
2023/10/30 07:52:08;;;;;;;901.00;834.70;;;10.70;99.90;;;;;;5016119;28;20447;-70
2023/10/30 07:54:35;;;;;;;866.60;807.40;;;10.80;99.90;;;;;;5015480;28;20542;-74
2023/10/30 07:57:02;;;;;;;802.90;751.40;;;11.00;99.90;;;;;;5016330;28;20452;-73
2023/10/30 07:59:29;;;;;;;784.23;734.37;;;11.10;99.90;;;;;;5016446;28;20481;-73
2023/10/30 08:01:56;;;;;;;767.10;718.73;;;11.20;99.90;;;;;;5016061;28;20454;-73
2023/10/30 08:04:23;;;;;;;724.43;680.60;;;11.30;99.90;;;;;;5016074;28;20456;-73
2023/10/30 08:06:51;;;;;;;636.30;598.80;;;11.50;99.90;;;;;;5015852;28;20468;-73
2023/10/30 08:09:19;;;;;;;586.07;552.73;;;11.60;99.90;;;;;;5015992;28;21018;-73
2023/10/30 08:11:46;;;;;;;525.10;497.40;;;11.80;99.90;;;;;;5016095;28;20460;-73
2023/10/30 08:14:13;;;;;;;475.70;451.47;;;11.90;99.90;;;;;;5015929;28;20510;-73
2023/10/30 08:16:40;;;;;;;428.63;408.33;;;12.00;99.90;;;;;;5015589;28;20533;-74
2023/10/30 08:19:06;;;;;;;384.77;367.23;;;12.10;99.90;;;;;;5015910;28;20489;-73
2023/10/30 08:21:34;;;;;;;354.20;339.20;;;12.20;99.90;;;;;;5015717;28;20499;-74
2023/10/30 08:24:01;;;;;;;334.00;320.00;;;12.40;99.90;;;;;;5015709;28;20947;-74
2023/10/30 08:26:29;;;;;;;258.13;247.73;;;12.50;99.90;;;;;;5016042;28;20541;-74
2023/10/30 08:28:56;;;;;;;241.73;232.83;;;12.60;99.90;;;;;;5015634;28;20540;-73
2023/10/30 08:31:23;;;;;;;237.97;227.90;;;12.70;99.90;;;;;;5015586;28;20936;-74
2023/10/30 08:33:49;;;;;;;219.87;212.27;;;12.80;99.90;;;;;;5015809;28;20452;-73
2023/10/30 08:36:22;;;;;;;157.67;152.20;;;12.80;99.90;;;;;;5015530;28;20487;-74
2023/10/30 08:38:49;;;;;;;143.20;137.73;;;13.00;99.90;;;;;;5015482;28;20508;-74
2023/10/30 08:41:17;;;;;;;122.60;118.03;;;13.10;99.90;;;;;;5015553;28;20510;-74
2023/10/30 08:43:46;;;;;;;120.23;115.93;;;13.20;99.90;;;;;;5015394;28;20452;-74
2023/10/30 08:46:17;;;;;;;99.67;95.83;;;13.30;99.90;;;;;;5015284;28;20536;-73
2023/10/30 08:48:44;;;;;;;72.57;69.43;;;13.40;99.90;;;;;;5015487;28;20805;-74
2023/10/30 08:51:10;;;;;;;47.57;45.17;;;13.50;99.90;;;;;;5015682;28;20459;-74
2023/10/30 08:53:37;;;;;;;46.30;44.00;;;13.50;99.90;;;;;;5015212;28;20455;-74
2023/10/30 08:56:05;;;;;;;40.27;37.87;;;13.60;99.90;;;;;;5014765;28;20939;-74
2023/10/30 08:58:32;;;;;;;45.53;43.27;;;13.70;99.90;;;;;;5014781;28;20477;-74
2023/10/30 09:01:00;;;;;;;38.30;36.30;;;13.70;99.90;;;;;;5015330;28;20551;-74
2023/10/30 09:03:27;;;;;;;46.00;43.57;;;13.80;99.90;;;;;;5015191;28;20449;-74
2023/10/30 09:05:54;;;;;;;48.10;45.37;;;14.00;99.90;;;;;;5014830;28;20544;-73
2023/10/30 09:08:21;;;;;;;34.80;32.97;;;14.10;99.90;;;;;;5014976;28;20444;-74
2023/10/30 09:10:48;;;;;;;25.00;23.50;;;14.20;99.90;;;;;;5015228;28;20453;-73
2023/10/30 09:13:15;;;;;;;20.53;13.10;;;14.30;99.90;;;;;;5015112;28;20449;-74
2023/10/30 09:15:42;;;;;;;12.00;6.60;;;14.40;99.90;;;;;;5014966;28;20463;-74
2023/10/30 09:18:10;;;;;;;9.23;8.47;;;14.30;99.90;;;;;;5014895;28;20993;-74
2023/10/30 09:20:36;;;;;;;17.40;11.90;;;14.40;99.90;;;;;;5014818;28;20819;-74
2023/10/30 09:23:03;;;;;;;9.90;7.73;;;14.30;99.90;;;;;;5014813;28;20491;-74
2023/10/30 09:25:30;;;;;;;7.17;6.30;;;14.40;99.90;;;;;;5014509;28;20524;-74
2023/10/30 09:27:57;;;;;;;9.33;6.20;;;14.50;99.90;;;;;;5014871;28;20453;-74
2023/10/30 09:30:30;;;;;;;6.97;5.80;;;14.60;99.90;;;;;;5014775;28;20532;-73
2023/10/30 09:32:57;;;;;;;13.17;6.20;;;14.70;99.90;;;;;;5014638;28;20456;-74
2023/10/30 09:35:28;;;;;;;10.10;5.40;;;14.80;99.90;;;;;;5014551;28;20484;-73
2023/10/30 09:37:55;;;;;;;6.67;4.03;;;14.90;99.90;;;;;;5014399;28;20480;-74
2023/10/30 09:40:26;;;;;;;9.77;3.70;;;15.10;99.90;;;;;;5014288;28;20476;-74
2023/10/30 09:42:53;;;;;;;7.50;3.57;;;15.20;99.90;;;;;;5014300;28;20446;-74
2023/10/30 09:45:22;;;;;;;7.20;2.53;;;15.30;99.90;;;;;;5014224;28;20949;-74
2023/10/30 09:47:52;;;;;;;6.13;2.80;;;15.50;99.90;;;;;;5014303;28;20449;-74
2023/10/30 09:50:19;;;;;;;6.10;2.60;;;15.70;99.90;;;;;;5014642;28;20449;-73
2023/10/30 09:52:49;;;;;;;5.50;2.10;;;15.80;99.90;;;;;;5014075;28;20461;-74
2023/10/30 09:55:18;;;;;;;5.20;2.00;;;15.90;99.90;;;;;;5014270;28;20929;-74
2023/10/30 09:57:48;;;;;;;6.60;2.33;;;16.10;98.90;;;;;;5014099;28;20456;-74
2023/10/30 10:00:16;;;;;;;4.77;1.80;;;16.30;96.90;;;;;;5013951;28;20484;-74
2023/10/30 10:02:43;;;;;;;5.23;1.70;;;16.20;93.50;;;;;;5014101;28;20453;-74
2023/10/30 10:05:12;;;;;;;4.43;1.40;;;16.20;93.50;;;;;;5013912;28;20938;-74
2023/10/30 10:07:39;;;;;;;5.00;1.50;;;16.40;92.30;;;;;;5013643;28;20469;-74
2023/10/30 10:10:09;;;;;;;4.80;1.20;;;16.30;90.20;;;;;;5013101;28;20449;-74
2023/10/30 10:12:36;;;;;;;4.40;1.20;;;16.40;90.20;;;;;;5006113;28;20476;-74
2023/10/30 10:15:06;;;;;;;10.80;2.53;;;16.50;90.50;;;;;;5013787;28;20485;-74
2023/10/30 10:17:40;;;;;;;4.70;1.67;;;16.70;90.40;;;;;;5013523;28;20820;-74
2023/10/30 10:20:10;;;;;;;4.57;1.50;;;16.80;90.30;;;;;;5013541;28;20984;-74
2023/10/30 10:22:39;;;;;;;5.83;1.50;;;16.90;90.40;;;;;;5006184;28;20491;-74
2023/10/30 10:25:10;;;;;;;5.00;1.57;;;17.00;88.00;;;;;;5013620;28;20453;-74
2023/10/30 10:27:38;;;;;;;7.30;1.50;;;16.90;86.30;;;;;;5012657;28;20445;-74
2023/10/30 10:30:06;;;;;;;5.23;1.73;;;16.90;85.90;;;;;;5012938;28;20449;-74
2023/10/30 10:32:34;;;;;;;5.40;1.27;;;16.80;83.20;;;;;;5012990;28;20448;-74
2023/10/30 10:35:05;;;;;;;7.50;2.23;;;16.70;83.10;;;;;;5013034;28;20449;-74
2023/10/30 10:37:32;;;;;;;6.97;1.90;;;16.90;83.20;;;;;;5013057;28;20448;-74
2023/10/30 10:39:59;;;;;;;4.87;1.50;;;17.10;87.40;;;;;;5012888;28;20576;-74
2023/10/30 10:42:28;;;;;;;4.10;1.30;;;17.30;88.60;;;;;;5013205;28;20867;-74
2023/10/30 10:44:57;;;;;;;7.07;2.13;;;17.50;85.10;;;;;;5012995;28;20511;-74
2023/10/30 10:47:24;;;;;;;4.83;1.40;;;18.00;84.20;;;;;;5012515;28;20449;-74
2023/10/30 10:49:51;;;;;;;4.80;1.43;;;18.30;84.50;;;;;;5012665;28;20457;-74
2023/10/30 10:52:20;;;;;;;5.27;1.30;;;18.20;76.60;;;;;;5012906;28;20964;-74
2023/10/30 10:54:51;;;;;;;5.00;1.27;;;18.20;77.40;;;;;;5011891;28;20449;-74
2023/10/30 10:57:20;;;;;;;5.27;1.10;;;18.10;82.00;;;;;;5012361;28;20484;-74
2023/10/30 10:59:55;;;;;;;6.53;1.90;;;18.10;84.10;;;;;;5012350;28;20520;-74
2023/10/30 11:02:29;;;;;;;5.80;1.20;;;17.90;84.10;;;;;;5012565;28;20515;-74
2023/10/30 11:04:58;;;;;;;5.70;1.77;;;17.70;84.00;;;;;;5012444;28;20644;-74
2023/10/30 11:07:29;;;;;;;6.90;1.63;;;17.40;83.70;;;;;;5012079;28;20468;-74
2023/10/30 11:10:00;;;;;;;4.93;1.67;;;17.10;83.40;;;;;;5011981;28;20449;-74
2023/10/30 11:12:49;;;;;;;4.13;1.30;;;17.00;83.30;;;;;;5012181;28;20523;-74
2023/10/30 11:15:25;;;;;;;6.90;1.30;;;16.80;84.00;;;;;;5012082;28;20541;-74
2023/10/30 11:18:19;;;;;;;9.40;1.60;;;16.60;84.60;;;;;;5011111;28;20452;-74
2023/10/30 11:20:46;;;;;;;4.47;1.77;;;16.40;88.50;;;;;;5012460;28;20481;-74
2023/10/30 11:23:13;;;;;;;7.07;2.00;;;16.30;90.20;;;;;;5012515;28;20453;-74
2023/10/30 11:25:54;;;;;;;6.83;2.00;;;16.10;90.10;;;;;;5012366;28;20974;-73
2023/10/30 11:28:23;;;;;;;4.50;1.77;;;16.00;92.30;;;;;;5012634;28;20468;-74
2023/10/30 11:30:53;;;;;;;5.60;1.63;;;15.90;92.70;;;;;;5012753;28;20456;-74
2023/10/30 11:33:22;;;;;;;4.33;1.63;;;15.80;93.40;;;;;;5012342;28;20941;-74
2023/10/30 11:36:12;;;;;;;6.67;2.17;;;15.70;93.30;;;;;;5012619;28;20459;-73
2023/10/30 11:38:49;;;;;;;5.40;1.87;;;15.70;93.70;;;;;;5012217;28;20452;-74
2023/10/30 11:41:17;;;;;;;4.87;1.90;;;15.60;93.30;;;;;;5012614;28;20452;-74
2023/10/30 11:43:44;;;;;;;6.53;3.30;;;15.50;93.30;;;;;;5012611;28;20539;-73
2023/10/30 11:46:14;;;;;;;6.90;2.73;;;15.40;93.20;;;;;;5012292;28;20457;-73
2023/10/30 11:48:41;;;;;;;4.50;2.17;;;15.40;93.20;;;;;;5012487;28;20881;-73
2023/10/30 11:51:09;;;;;;;6.40;1.87;;;15.30;93.20;;;;;;5012205;28;20556;-74
2023/10/30 11:53:36;;;;;;;5.03;1.90;;;15.50;93.20;;;;;;5012507;28;20457;-73
2023/10/30 11:56:04;;;;;;;5.33;1.90;;;15.70;93.30;;;;;;5010859;28;20453;-74
2023/10/30 11:58:31;;;;;;;3.90;1.70;;;16.00;91.50;;;;;;5011995;28;20453;-74
2023/10/30 12:00:59;;;;;;;3.80;1.17;;;16.20;91.20;;;;;;5011307;28;20477;-74
2023/10/30 12:03:27;;;;;;;6.03;1.67;;;16.30;90.10;;;;;;5011532;28;20480;-74
2023/10/30 12:05:54;;;;;;;6.13;1.90;;;16.30;90.20;;;;;;5011248;28;20520;-74
2023/10/30 12:08:22;;;;;;;6.00;2.20;;;16.30;90.20;;;;;;5011487;28;20456;-74
2023/10/30 12:10:49;;;;;;;8.17;2.37;;;16.20;90.10;;;;;;5011534;28;20445;-74
2023/10/30 12:13:16;;;;;;;5.90;2.20;;;16.30;91.50;;;;;;5011430;28;20449;-74
2023/10/30 12:15:44;;;;;;;6.40;3.00;;;16.20;91.50;;;;;;5011513;28;20901;-73
2023/10/30 12:18:10;;;;;;;5.70;2.07;;;16.20;91.70;;;;;;5011077;28;20452;-74
2023/10/30 12:20:39;;;;;;;6.33;2.63;;;16.20;92.40;;;;;;5011785;28;20477;-74
2023/10/30 12:23:09;;;;;;;6.20;2.00;;;16.20;93.50;;;;;;5011968;28;20540;-74